createdAt,value
2023-01-12T00:01:27.582Z,84.65
2023-01-12T00:03:55.335Z,85.24
2023-01-12T00:06:23.070Z,85.56
2023-01-12T00:08:51.127Z,85.93
2023-01-12T00:11:18.550Z,85.70
2023-01-12T00:13:45.452Z,85.99
2023-01-12T00:16:36.825Z,85.97
2023-01-12T00:19:23.051Z,86.19
2023-01-12T00:22:12.360Z,85.50
2023-01-12T00:24:44.558Z,85.47
2023-01-12T00:27:16.777Z,85.84
2023-01-12T00:29:43.441Z,85.30
2023-01-12T00:32:15.823Z,85.45
2023-01-12T00:34:42.918Z,84.54
2023-01-12T00:37:09.615Z,84.86
2023-01-12T00:42:42.005Z,84.44
2023-01-12T00:45:22.069Z,84.24
2023-01-12T00:47:48.470Z,84.18
2023-01-12T00:50:16.526Z,83.73
2023-01-12T00:52:45.091Z,83.59
2023-01-12T00:55:11.537Z,83.51
2023-01-12T00:57:38.101Z,83.15
2023-01-12T01:00:05.119Z,83.08
2023-01-12T01:02:31.579Z,83.02
2023-01-12T01:04:58.086Z,82.87
2023-01-12T01:07:24.569Z,82.48
2023-01-12T01:09:51.392Z,82.43
2023-01-12T01:12:17.859Z,82.16
2023-01-12T01:14:44.424Z,81.93
2023-01-12T01:17:10.829Z,81.48
2023-01-12T01:19:37.548Z,81.55
2023-01-12T01:22:04.058Z,81.02
2023-01-12T01:24:30.583Z,81.01
2023-01-12T01:26:57.073Z,81.03
2023-01-12T01:29:23.518Z,79.90
2023-01-12T01:31:49.951Z,79.66
2023-01-12T01:34:16.422Z,79.03
2023-01-12T01:36:42.929Z,78.60
2023-01-12T01:39:09.494Z,78.38
2023-01-12T01:44:28.892Z,78.17
2023-01-12T01:47:07.937Z,78.11
2023-01-12T01:49:39.064Z,78.88
2023-01-12T01:52:11.675Z,79.33
2023-01-12T01:54:45.634Z,79.88
2023-01-12T01:57:13.890Z,80.11
2023-01-12T01:59:44.720Z,80.45
2023-01-12T02:02:12.124Z,80.65
2023-01-12T02:04:38.952Z,80.76
2023-01-12T02:07:06.962Z,81.48
2023-01-12T02:09:33.586Z,81.31
2023-01-12T02:12:18.683Z,81.26
2023-01-12T02:15:07.542Z,81.18
2023-01-12T02:17:53.473Z,81.03
2023-01-12T02:20:49.373Z,80.58
2023-01-12T02:23:43.965Z,80.60
2023-01-12T02:26:29.861Z,80.28
2023-01-12T02:29:44.891Z,80.18
2023-01-12T02:32:31.285Z,79.83
2023-01-12T02:35:22.430Z,79.55
2023-01-12T02:38:03.625Z,79.25
2023-01-12T02:40:48.024Z,79.53
2023-01-12T02:43:32.747Z,79.20
2023-01-12T02:46:11.454Z,79.20
2023-01-12T02:48:42.205Z,78.71
2023-01-12T02:51:11.752Z,78.93
2023-01-12T02:53:47.405Z,78.99
2023-01-12T02:56:19.630Z,78.96
2023-01-12T02:58:51.311Z,78.73
2023-01-12T03:01:20.765Z,78.52
2023-01-12T03:03:49.754Z,78.25
2023-01-12T03:06:17.627Z,78.20
2023-01-12T03:08:47.751Z,78.13
2023-01-12T03:11:16.570Z,78.24
2023-01-12T03:13:49.235Z,77.95
2023-01-12T03:16:20.811Z,77.76
2023-01-12T03:19:01.500Z,77.59
2023-01-12T03:21:35.005Z,77.59
2023-01-12T03:24:25.404Z,76.83
2023-01-12T03:26:58.750Z,76.66
2023-01-12T03:29:31.513Z,76.24
2023-01-12T03:31:59.307Z,75.98
2023-01-12T03:34:26.365Z,75.80
2023-01-12T03:37:03.372Z,75.93
2023-01-12T03:39:47.971Z,75.78
2023-01-12T03:42:32.956Z,75.75
2023-01-12T03:45:11.595Z,75.21
2023-01-12T03:47:43.428Z,75.27
2023-01-12T03:50:16.561Z,75.36
2023-01-12T03:52:45.051Z,75.02
2023-01-12T03:55:15.605Z,75.04
2023-01-12T03:57:44.744Z,74.93
2023-01-12T04:00:13.341Z,75.23
2023-01-12T04:02:42.879Z,74.92
2023-01-12T04:05:10.261Z,75.18
2023-01-12T04:07:36.755Z,75.31
2023-01-12T04:10:03.724Z,75.65
2023-01-12T04:12:30.202Z,75.65
2023-01-12T04:14:56.727Z,75.80
2023-01-12T04:17:25.211Z,76.29
2023-01-12T04:19:52.214Z,76.16
2023-01-12T04:22:37.893Z,76.28
2023-01-12T04:25:04.925Z,76.79
2023-01-12T04:27:31.347Z,76.67
2023-01-12T04:29:57.810Z,76.80
2023-01-12T04:32:24.373Z,77.15
2023-01-12T04:34:50.849Z,77.08
2023-01-12T04:37:17.615Z,77.44
2023-01-12T04:39:44.116Z,77.48
2023-01-12T04:42:30.476Z,77.54
2023-01-12T04:44:56.847Z,77.83
2023-01-12T04:47:23.307Z,78.06
2023-01-12T04:49:49.738Z,78.89
2023-01-12T04:52:16.119Z,78.75
2023-01-12T04:54:42.534Z,78.57
2023-01-12T04:57:08.904Z,78.62
2023-01-12T04:59:35.289Z,78.37
2023-01-12T05:02:01.838Z,78.63
2023-01-12T05:04:28.376Z,78.76
2023-01-12T05:06:54.772Z,78.99
2023-01-12T05:09:39.581Z,78.98
2023-01-12T05:12:06.312Z,79.57
2023-01-12T05:14:32.820Z,80.01
2023-01-12T05:16:59.651Z,80.76
2023-01-12T05:19:26.032Z,81.31
2023-01-12T05:21:52.429Z,82.19
2023-01-12T05:24:18.990Z,82.65
2023-01-12T05:26:45.391Z,83.15
2023-01-12T05:29:12.561Z,83.67
2023-01-12T05:31:39.018Z,84.50
2023-01-12T05:34:05.444Z,85.74
2023-01-12T05:36:31.864Z,86.06
2023-01-12T05:38:58.293Z,86.50
2023-01-12T05:41:24.942Z,87.19
2023-01-12T05:43:51.422Z,88.13
2023-01-12T05:46:17.836Z,88.51
2023-01-12T05:48:44.458Z,88.80
2023-01-12T05:51:12.090Z,89.60
2023-01-12T05:53:38.599Z,90.34
2023-01-12T05:56:17.191Z,90.84
2023-01-12T05:58:43.825Z,90.72
2023-01-12T06:01:10.596Z,91.12
2023-01-12T06:03:37.439Z,91.53
2023-01-12T06:06:04.575Z,91.56
2023-01-12T06:08:31.050Z,91.57
2023-01-12T06:11:03.789Z,91.70
2023-01-12T06:13:48.947Z,91.85
2023-01-12T06:16:15.437Z,91.75
2023-01-12T06:18:42.022Z,92.13
2023-01-12T06:21:10.036Z,92.37
2023-01-12T06:23:36.588Z,92.62
2023-01-12T06:26:05.656Z,92.90
2023-01-12T06:28:32.120Z,92.60
2023-01-12T06:31:00.395Z,92.83
2023-01-12T06:33:27.945Z,93.49
2023-01-12T06:35:55.325Z,93.45
2023-01-12T06:38:23.532Z,93.14
2023-01-12T06:40:50.052Z,93.36
2023-01-12T06:43:16.879Z,93.76
2023-01-12T06:45:43.898Z,93.33
2023-01-12T06:48:10.517Z,93.32
2023-01-12T06:50:37.534Z,93.03
2023-01-12T06:53:06.823Z,93.26
2023-01-12T06:55:33.487Z,93.07
2023-01-12T06:58:06.868Z,93.51
2023-01-12T07:00:33.281Z,93.33
2023-01-12T07:02:59.732Z,93.56
2023-01-12T07:05:26.108Z,93.73
2023-01-12T07:07:59.104Z,93.81
2023-01-12T07:10:26.166Z,93.75
2023-01-12T07:12:52.624Z,94.08
2023-01-12T07:15:19.035Z,93.86
2023-01-12T07:17:45.471Z,93.28
2023-01-12T07:20:12.101Z,93.24
2023-01-12T07:22:39.348Z,93.35
2023-01-12T07:25:06.237Z,93.50
2023-01-12T07:27:32.616Z,93.32
2023-01-12T07:29:59.278Z,93.07
2023-01-12T07:32:27.331Z,92.95
2023-01-12T07:34:53.764Z,93.00
2023-01-12T07:37:20.408Z,93.21
2023-01-12T07:39:46.939Z,93.41
2023-01-12T07:42:25.175Z,93.50
2023-01-12T07:44:52.155Z,93.52
2023-01-12T07:47:18.891Z,93.62
2023-01-12T07:49:45.305Z,93.61
2023-01-12T07:52:12.783Z,93.88
2023-01-12T07:54:39.188Z,94.17
2023-01-12T07:57:10.013Z,94.46
2023-01-12T07:59:36.682Z,94.17
2023-01-12T08:02:03.986Z,93.87
2023-01-12T08:04:30.454Z,93.84
2023-01-12T08:06:57.252Z,93.77
2023-01-12T08:09:24.076Z,93.96
2023-01-12T08:11:50.469Z,93.30
2023-01-12T08:14:27.407Z,93.20
2023-01-12T08:16:56.430Z,92.90
2023-01-12T08:19:28.127Z,93.29
2023-01-12T08:21:58.854Z,93.01
2023-01-12T08:24:32.119Z,92.66
2023-01-12T08:27:02.085Z,92.75
2023-01-12T08:29:42.016Z,92.81
2023-01-12T08:34:42.464Z,93.16
2023-01-12T08:37:14.061Z,93.44
2023-01-12T08:39:40.941Z,93.46
2023-01-12T08:42:07.492Z,93.80
2023-01-12T08:44:35.441Z,94.29
2023-01-12T08:47:03.710Z,94.54
2023-01-12T08:49:31.320Z,95.15
2023-01-12T08:51:58.096Z,95.15
2023-01-12T08:54:25.247Z,95.64
2023-01-12T08:56:53.796Z,96.05
2023-01-12T08:59:20.330Z,95.64
2023-01-12T09:01:47.218Z,96.16
2023-01-12T09:04:13.686Z,96.35
2023-01-12T09:06:42.865Z,96.73
2023-01-12T09:09:12.379Z,96.78
2023-01-12T09:11:41.913Z,97.10
2023-01-12T09:14:09.008Z,96.99
2023-01-12T09:16:35.563Z,97.28
2023-01-12T09:19:02.132Z,97.09
2023-01-12T09:21:30.694Z,97.31
2023-01-12T09:23:57.663Z,97.03
2023-01-12T09:26:31.919Z,96.73
2023-01-12T09:28:59.522Z,97.42
2023-01-12T09:31:27.405Z,97.48
2023-01-12T09:33:54.579Z,97.39
2023-01-12T09:36:30.058Z,97.30
2023-01-12T09:38:56.600Z,97.12
2023-01-12T09:41:43.927Z,97.62
2023-01-12T09:44:38.517Z,97.70
2023-01-12T09:47:10.276Z,97.36
2023-01-12T09:49:44.316Z,97.83
2023-01-12T09:52:21.979Z,98.13
2023-01-12T09:54:51.421Z,98.19
2023-01-12T09:57:30.509Z,97.79
2023-01-12T10:00:11.348Z,98.18
2023-01-12T10:02:41.723Z,98.01
2023-01-12T10:05:19.753Z,98.57
2023-01-12T10:07:47.686Z,97.77
2023-01-12T10:10:15.523Z,98.19
2023-01-12T10:12:48.304Z,98.36
2023-01-12T10:15:42.673Z,98.79
2023-01-12T10:18:25.686Z,97.98
2023-01-12T10:20:52.922Z,98.30
2023-01-12T10:23:24.491Z,98.15
2023-01-12T10:25:59.653Z,98.64
2023-01-12T10:28:30.136Z,98.58
2023-01-12T10:30:58.238Z,98.29
2023-01-12T10:33:33.327Z,98.46
2023-01-12T10:36:20.481Z,98.82
2023-01-12T10:38:57.560Z,98.75
2023-01-12T10:41:26.471Z,98.73
2023-01-12T10:43:58.723Z,98.92
2023-01-12T10:46:28.213Z,98.79
2023-01-12T10:49:29.574Z,99.54
2023-01-12T10:52:10.584Z,98.98
2023-01-12T10:54:41.266Z,98.65
2023-01-12T10:57:22.356Z,98.92
2023-01-12T11:00:00.059Z,99.16
2023-01-12T11:02:28.914Z,98.54
2023-01-12T11:04:55.698Z,98.81
2023-01-12T11:07:29.002Z,98.78
2023-01-12T11:10:16.359Z,98.95
2023-01-12T11:12:55.095Z,99.50
2023-01-12T11:15:21.818Z,99.32
2023-01-12T11:18:11.256Z,99.50
2023-01-12T11:21:02.609Z,99.48
2023-01-12T11:23:37.224Z,99.22
2023-01-12T11:26:29.072Z,99.87
2023-01-12T11:29:02.764Z,99.68
2023-01-12T11:31:38.293Z,99.25
2023-01-12T11:34:22.259Z,100.00
2023-01-12T11:37:00.663Z,99.53
2023-01-12T11:39:30.311Z,99.45
2023-01-12T11:42:20.078Z,99.32
2023-01-12T11:44:46.428Z,98.93
2023-01-12T11:47:21.239Z,99.30
2023-01-12T11:50:02.303Z,99.13
2023-01-12T11:52:29.504Z,98.88
2023-01-12T11:54:56.148Z,99.07
2023-01-12T11:57:25.217Z,98.94
2023-01-12T12:00:13.312Z,99.42
2023-01-12T12:03:26.103Z,99.19
2023-01-12T12:06:03.904Z,98.68
2023-01-12T12:08:33.063Z,98.77
2023-01-12T12:11:02.977Z,98.92
2023-01-12T12:13:56.135Z,99.33
2023-01-12T12:17:04.417Z,100.00
2023-01-12T12:19:47.567Z,99.32
2023-01-12T12:22:43.945Z,99.64
2023-01-12T12:25:30.385Z,100.00
2023-01-12T12:28:06.244Z,99.44
2023-01-12T12:30:47.334Z,99.84
2023-01-12T12:33:32.156Z,99.67
2023-01-12T12:36:26.532Z,99.56
2023-01-12T12:39:24.581Z,100.00
2023-01-12T12:42:38.774Z,99.69
2023-01-12T12:45:22.413Z,99.34
2023-01-12T12:47:57.725Z,99.16
2023-01-12T12:50:48.112Z,98.80
2023-01-12T12:53:19.903Z,98.44
2023-01-12T12:55:47.576Z,98.56
2023-01-12T12:58:23.024Z,98.72
2023-01-12T13:00:50.955Z,98.27
2023-01-12T13:03:39.258Z,98.41
2023-01-12T13:06:28.603Z,97.37
2023-01-12T13:09:00.942Z,96.60
2023-01-12T13:11:54.368Z,97.12
2023-01-12T13:14:38.724Z,96.54
2023-01-12T13:17:20.215Z,96.66
2023-01-12T13:19:48.372Z,95.70
2023-01-12T13:22:41.980Z,96.24
2023-01-12T13:25:20.689Z,95.88
2023-01-12T13:27:54.128Z,95.12
2023-01-12T13:30:26.728Z,95.07
2023-01-12T13:32:53.466Z,94.02
2023-01-12T13:35:49.040Z,94.75
2023-01-12T13:38:34.060Z,94.24
2023-01-12T13:41:13.629Z,93.28
2023-01-12T13:43:52.337Z,92.44
2023-01-12T13:46:23.849Z,91.47
2023-01-12T13:48:54.485Z,90.85
2023-01-12T13:51:28.328Z,90.70
2023-01-12T13:54:15.397Z,91.24
2023-01-12T13:56:42.908Z,89.48
2023-01-12T13:59:18.158Z,89.84
2023-01-12T14:01:47.307Z,88.88
2023-01-12T14:04:13.886Z,88.61
2023-01-12T14:06:49.590Z,88.95
2023-01-12T14:09:29.595Z,88.82
2023-01-12T14:12:26.577Z,88.91
2023-01-12T14:15:29.197Z,88.16
2023-01-12T14:18:09.095Z,88.31
2023-01-12T14:20:53.542Z,88.23
2023-01-12T14:23:26.022Z,87.63
2023-01-12T14:26:12.012Z,88.19
2023-01-12T14:28:41.331Z,87.48
2023-01-12T14:31:16.985Z,87.75
2023-01-12T14:33:50.262Z,88.27
2023-01-12T14:36:21.747Z,88.12
2023-01-12T14:38:49.283Z,87.83
2023-01-12T14:41:38.126Z,88.15
2023-01-12T14:44:23.987Z,88.10
2023-01-12T14:46:53.869Z,88.59
2023-01-12T14:49:32.216Z,88.78
2023-01-12T14:52:01.600Z,88.49
2023-01-12T14:54:29.850Z,88.65
2023-01-12T14:57:18.398Z,89.81
2023-01-12T14:59:47.185Z,89.26
2023-01-12T15:02:13.798Z,89.34
2023-01-12T15:04:55.218Z,90.44
2023-01-12T15:07:22.897Z,89.85
2023-01-12T15:10:02.174Z,90.92
2023-01-12T15:12:28.733Z,90.14
2023-01-12T15:15:19.245Z,91.54
2023-01-12T15:18:06.772Z,90.40
2023-01-12T15:20:58.343Z,90.80
2023-01-12T15:23:54.148Z,91.63
2023-01-12T15:26:21.793Z,91.12
2023-01-12T15:28:49.659Z,91.24
2023-01-12T15:31:28.435Z,91.66
2023-01-12T15:33:57.020Z,91.45
2023-01-12T15:36:25.137Z,91.67
2023-01-12T15:38:52.233Z,91.65
2023-01-12T15:41:46.119Z,92.33
2023-01-12T15:44:15.021Z,91.88
2023-01-12T15:46:42.987Z,91.79
2023-01-12T15:49:11.282Z,91.94
2023-01-12T15:51:38.073Z,92.11
2023-01-12T15:54:05.021Z,92.34
2023-01-12T15:56:31.760Z,92.49
2023-01-12T15:58:58.471Z,92.69
2023-01-12T16:01:33.696Z,93.41
2023-01-12T16:04:36.068Z,93.18
2023-01-12T16:06:47.200Z,93.12
2023-01-12T16:09:13.911Z,93.31
2023-01-12T16:11:41.084Z,93.44
2023-01-12T16:14:08.102Z,93.93
2023-01-12T16:16:36.155Z,94.29
2023-01-12T16:19:06.081Z,94.92
2023-01-12T16:21:33.737Z,94.96
2023-01-12T16:24:01.215Z,95.31
2023-01-12T16:26:29.560Z,95.65
2023-01-12T16:28:57.564Z,95.81
2023-01-12T16:31:24.045Z,95.86
2023-01-12T16:33:52.421Z,96.00
2023-01-12T16:36:19.081Z,96.19
2023-01-12T16:38:45.530Z,96.00
2023-01-12T16:41:17.022Z,95.98
2023-01-12T16:43:43.445Z,95.85
2023-01-12T16:46:11.219Z,95.83
2023-01-12T16:48:39.272Z,95.64
2023-01-12T16:51:17.314Z,96.36
2023-01-12T16:53:45.025Z,95.73
2023-01-12T16:56:14.567Z,95.69
2023-01-12T16:58:47.526Z,95.41
2023-01-12T17:01:17.335Z,95.53
2023-01-12T17:03:44.311Z,95.68
2023-01-12T17:06:13.165Z,95.91
2023-01-12T17:08:41.510Z,95.63
2023-01-12T17:11:10.120Z,95.84
2023-01-12T17:13:37.636Z,95.89
2023-01-12T17:16:07.415Z,96.17
2023-01-12T17:18:33.959Z,96.11
2023-01-12T17:21:07.563Z,96.66
2023-01-12T17:23:34.081Z,96.10
2023-01-12T17:26:04.855Z,96.20
2023-01-12T17:28:34.627Z,95.81
2023-01-12T17:31:10.912Z,96.38
2023-01-12T17:33:38.440Z,96.21
2023-01-12T17:36:06.405Z,96.38
2023-01-12T17:38:34.666Z,96.50
2023-01-12T17:41:33.193Z,96.92
2023-01-12T17:44:02.127Z,97.30
2023-01-12T17:46:29.856Z,97.20
2023-01-12T17:49:04.859Z,97.67
2023-01-12T17:51:31.607Z,97.04
2023-01-12T17:53:59.301Z,97.22
2023-01-12T17:56:28.247Z,97.39
2023-01-12T17:58:55.595Z,97.37
2023-01-12T18:01:24.140Z,97.54
2023-01-12T18:03:50.913Z,97.77
2023-01-12T18:06:25.767Z,97.84
2023-01-12T18:08:56.174Z,97.98
2023-01-12T18:11:23.414Z,98.29
2023-01-12T18:13:49.795Z,98.25
2023-01-12T18:16:16.568Z,98.34
2023-01-12T18:18:44.064Z,98.64
2023-01-12T18:21:16.393Z,98.46
2023-01-12T18:23:43.580Z,98.26
2023-01-12T18:26:13.886Z,98.47
2023-01-12T18:28:40.209Z,99.06
2023-01-12T18:31:11.116Z,98.47
2023-01-12T18:33:38.116Z,98.73
2023-01-12T18:36:15.110Z,99.08
2023-01-12T18:38:41.859Z,98.72
2023-01-12T18:41:27.400Z,98.90
2023-01-12T18:43:54.172Z,99.02
2023-01-12T18:46:20.596Z,99.08
2023-01-12T18:48:47.845Z,98.79
2023-01-12T18:51:33.461Z,98.78
2023-01-12T18:54:00.400Z,98.52
2023-01-12T18:56:27.009Z,98.56
2023-01-12T18:58:53.441Z,98.88
2023-01-12T19:01:22.676Z,99.02
2023-01-12T19:03:49.827Z,98.69
2023-01-12T19:06:38.479Z,99.10
2023-01-12T19:09:23.595Z,99.15
2023-01-12T19:11:49.976Z,99.33
2023-01-12T19:14:34.729Z,99.64
2023-01-12T19:17:19.665Z,99.54
2023-01-12T19:19:46.104Z,99.83
2023-01-12T19:22:31.125Z,99.88
2023-01-12T19:25:16.064Z,99.96
2023-01-12T19:28:01.197Z,100.00
2023-01-12T19:30:27.658Z,100.00
2023-01-12T19:32:57.569Z,100.00
2023-01-12T19:35:27.313Z,100.00
2023-01-12T19:37:53.752Z,100.00
2023-01-12T19:40:35.071Z,100.00
2023-01-12T19:43:12.513Z,100.00
2023-01-12T19:45:41.159Z,100.00
2023-01-12T19:48:08.197Z,100.00
2023-01-12T19:50:36.098Z,100.00
2023-01-12T19:53:03.441Z,100.00
2023-01-12T19:55:30.606Z,100.00
2023-01-12T19:57:57.604Z,100.00
2023-01-12T20:00:25.339Z,100.00
2023-01-12T20:02:51.902Z,100.00
2023-01-12T20:05:22.658Z,100.00
2023-01-12T20:07:50.303Z,99.95
2023-01-12T20:10:16.747Z,99.79
2023-01-12T20:12:43.195Z,99.84
2023-01-12T20:15:10.417Z,99.58
2023-01-12T20:17:36.924Z,99.47
2023-01-12T20:20:08.491Z,99.55
2023-01-12T20:22:35.769Z,99.65
2023-01-12T20:25:03.522Z,99.40
2023-01-12T20:27:32.614Z,99.22
2023-01-12T20:29:59.736Z,99.15
2023-01-12T20:32:31.493Z,99.63
2023-01-12T20:35:01.848Z,99.35
2023-01-12T20:37:28.323Z,99.34
2023-01-12T20:39:56.317Z,99.30
2023-01-12T20:42:22.746Z,98.85
2023-01-12T20:44:49.741Z,98.59
2023-01-12T20:47:19.057Z,98.66
2023-01-12T20:49:46.656Z,98.51
2023-01-12T20:52:13.415Z,98.42
2023-01-12T20:54:39.960Z,98.46
2023-01-12T20:57:06.387Z,98.27
2023-01-12T20:59:32.846Z,98.30
2023-01-12T21:01:59.503Z,98.46
2023-01-12T21:04:25.939Z,98.44
2023-01-12T21:06:52.338Z,98.48
2023-01-12T21:09:18.805Z,98.58
2023-01-12T21:11:47.046Z,98.93
2023-01-12T21:14:13.894Z,98.48
2023-01-12T21:16:40.338Z,98.64
2023-01-12T21:19:07.768Z,98.72
2023-01-12T21:21:34.293Z,98.76
2023-01-12T21:24:01.132Z,98.68
2023-01-12T21:26:27.543Z,98.72
2023-01-12T21:28:54.229Z,98.66
2023-01-12T21:31:20.664Z,98.22
2023-01-12T21:33:47.158Z,98.38
2023-01-12T21:36:14.496Z,98.39
2023-01-12T21:38:41.041Z,98.19
2023-01-12T21:41:07.594Z,98.28
2023-01-12T21:43:34.354Z,97.83
2023-01-12T21:46:06.079Z,98.46
2023-01-12T21:48:32.607Z,97.93
2023-01-12T21:51:06.928Z,98.39
2023-01-12T21:53:34.586Z,97.93
2023-01-12T21:56:02.540Z,97.71
2023-01-12T21:58:30.793Z,97.52
2023-01-12T22:00:57.485Z,96.99
2023-01-12T22:03:28.152Z,96.95
2023-01-12T22:05:55.277Z,96.83
2023-01-12T22:08:22.263Z,96.87
2023-01-12T22:10:48.710Z,96.87
2023-01-12T22:13:17.301Z,97.19
2023-01-12T22:15:44.941Z,97.08
2023-01-12T22:18:11.365Z,96.95
2023-01-12T22:20:38.654Z,96.60
2023-01-12T22:23:05.071Z,96.41
2023-01-12T22:25:31.511Z,96.10
2023-01-12T22:27:57.967Z,95.86
2023-01-12T22:30:25.204Z,95.87
2023-01-12T22:32:54.504Z,96.20
2023-01-12T22:35:21.357Z,96.18
2023-01-12T22:37:48.033Z,95.93
2023-01-12T22:40:15.838Z,96.06
2023-01-12T22:43:00.624Z,95.96
2023-01-12T22:45:27.045Z,95.95
2023-01-12T22:47:57.114Z,95.76
2023-01-12T22:50:24.787Z,95.63
2023-01-12T22:52:54.981Z,95.50
2023-01-12T22:55:22.105Z,95.61
2023-01-12T22:57:48.564Z,95.28
2023-01-12T23:00:22.531Z,95.48
2023-01-12T23:03:01.763Z,95.42
2023-01-12T23:05:32.038Z,95.28
2023-01-12T23:07:59.265Z,95.03
2023-01-12T23:10:26.314Z,95.23
2023-01-12T23:13:11.175Z,94.92
2023-01-12T23:15:39.180Z,94.81
2023-01-12T23:18:06.798Z,94.69
2023-01-12T23:20:35.686Z,94.63
2023-01-12T23:23:06.335Z,94.59
2023-01-12T23:25:33.774Z,94.08
2023-01-12T23:28:00.468Z,93.99
2023-01-12T23:30:30.991Z,93.94
2023-01-12T23:33:04.082Z,94.20
2023-01-12T23:35:39.112Z,93.66
2023-01-12T23:38:07.483Z,93.48
2023-01-12T23:40:34.110Z,93.37
2023-01-12T23:43:01.500Z,93.23
2023-01-12T23:45:28.093Z,93.13
2023-01-12T23:47:54.617Z,93.27
2023-01-12T23:50:21.138Z,93.85
2023-01-12T23:52:49.880Z,94.04
2023-01-12T23:55:16.353Z,94.19
2023-01-12T23:57:42.910Z,94.46
